createdAt,value
2023-02-11T00:01:25.965Z,11.32
2023-02-11T00:03:52.932Z,12.25
2023-02-11T00:06:20.034Z,11.65
2023-02-11T00:08:47.742Z,17.35
2023-02-11T00:11:16.472Z,14.13
2023-02-11T00:13:44.377Z,13.00
2023-02-11T00:16:14.689Z,15.20
2023-02-11T00:18:41.612Z,18.48
2023-02-11T00:21:10.568Z,14.65
2023-02-11T00:23:38.135Z,13.32
2023-02-11T00:26:12.218Z,14.50
2023-02-11T00:28:39.113Z,11.10
2023-02-11T00:31:06.957Z,11.35
2023-02-11T00:33:33.859Z,12.73
2023-02-11T00:36:05.126Z,11.77
2023-02-11T00:38:31.975Z,12.05
2023-02-11T00:40:58.943Z,11.15
2023-02-11T00:43:26.060Z,12.45
2023-02-11T00:45:53.189Z,13.07
2023-02-11T00:48:20.197Z,11.60
2023-02-11T00:50:47.285Z,10.50
2023-02-11T00:53:14.177Z,9.80
2023-02-11T00:55:41.027Z,11.48
2023-02-11T00:58:07.907Z,11.30
2023-02-11T01:00:34.712Z,13.35
2023-02-11T01:03:01.596Z,13.68
2023-02-11T01:05:29.181Z,11.73
2023-02-11T01:07:56.147Z,14.63
2023-02-11T01:10:22.999Z,16.20
2023-02-11T01:12:49.937Z,14.43
2023-02-11T01:15:19.241Z,13.65
2023-02-11T01:17:46.092Z,15.20
2023-02-11T01:20:20.163Z,13.30
2023-02-11T01:25:14.280Z,14.05
2023-02-11T01:27:41.283Z,11.55
2023-02-11T01:30:09.756Z,12.70
2023-02-11T01:32:36.867Z,12.45
2023-02-11T01:35:04.010Z,13.55
2023-02-11T01:37:33.640Z,12.48
2023-02-11T01:40:02.398Z,11.05
2023-02-11T01:42:29.549Z,10.82
2023-02-11T01:44:57.946Z,12.52
2023-02-11T01:47:24.767Z,11.43
2023-02-11T01:50:01.860Z,9.77
2023-02-11T01:52:31.980Z,11.63
2023-02-11T01:55:24.212Z,11.60
2023-02-11T01:57:57.891Z,10.85
2023-02-11T02:00:33.680Z,9.77
2023-02-11T02:03:22.712Z,11.23
2023-02-11T02:06:02.416Z,13.85
2023-02-11T02:08:43.963Z,13.25
2023-02-11T02:11:11.078Z,12.27
2023-02-11T02:13:37.959Z,12.02
2023-02-11T02:16:16.864Z,11.63
2023-02-11T02:19:20.495Z,13.10
2023-02-11T02:22:10.685Z,9.98
2023-02-11T02:24:56.813Z,10.15
2023-02-11T02:27:48.799Z,12.10
2023-02-11T02:30:46.354Z,10.40
2023-02-11T02:34:14.367Z,10.32
2023-02-11T02:36:58.585Z,10.73
2023-02-11T02:39:30.692Z,9.38
2023-02-11T02:41:58.186Z,9.70
2023-02-11T02:44:25.457Z,11.10
2023-02-11T02:46:52.405Z,8.85
2023-02-11T02:49:19.260Z,13.00
2023-02-11T02:52:08.744Z,12.20
2023-02-11T02:54:56.506Z,9.88
2023-02-11T02:57:41.672Z,9.32
2023-02-11T03:00:11.095Z,10.18
2023-02-11T03:03:02.138Z,9.85
2023-02-11T03:05:54.060Z,10.02
2023-02-11T03:08:35.316Z,8.93
2023-02-11T03:11:03.428Z,10.68
2023-02-11T03:13:34.282Z,8.98
2023-02-11T03:16:23.002Z,8.38
2023-02-11T03:19:02.180Z,9.98
2023-02-11T03:21:32.559Z,10.73
2023-02-11T03:24:05.898Z,11.57
2023-02-11T03:26:57.520Z,10.20
2023-02-11T03:29:52.071Z,8.85
2023-02-11T03:32:32.907Z,9.30
2023-02-11T03:35:13.819Z,8.07
2023-02-11T03:37:57.900Z,10.05
2023-02-11T03:40:32.645Z,8.32
2023-02-11T03:43:31.164Z,9.77
2023-02-11T03:46:00.399Z,7.03
2023-02-11T03:48:34.912Z,7.70
2023-02-11T03:51:05.616Z,9.77
2023-02-11T03:53:32.636Z,10.02
2023-02-11T03:56:05.375Z,9.18
2023-02-11T03:58:32.337Z,8.75
2023-02-11T04:00:59.241Z,10.45
2023-02-11T04:03:26.202Z,9.43
2023-02-11T04:05:53.148Z,11.10
2023-02-11T04:08:20.812Z,9.60
2023-02-11T04:10:47.716Z,13.75
2023-02-11T04:13:15.166Z,11.63
2023-02-11T04:15:41.999Z,11.90
2023-02-11T04:18:08.893Z,9.40
2023-02-11T04:20:35.736Z,13.82
2023-02-11T04:23:02.557Z,10.65
2023-02-11T04:25:29.567Z,11.55
2023-02-11T04:27:56.528Z,11.88
2023-02-11T04:30:23.573Z,11.02
2023-02-11T04:32:50.500Z,10.75
2023-02-11T04:35:17.424Z,12.98
2023-02-11T04:37:44.283Z,13.88
2023-02-11T04:40:11.471Z,14.35
2023-02-11T04:42:38.372Z,16.00
2023-02-11T04:45:05.465Z,14.23
2023-02-11T04:47:32.369Z,14.98
2023-02-11T04:49:59.300Z,15.93
2023-02-11T04:52:26.219Z,17.88
2023-02-11T04:54:53.118Z,17.75
2023-02-11T04:57:19.941Z,16.08
2023-02-11T04:59:46.747Z,17.73
2023-02-11T05:02:13.741Z,15.85
2023-02-11T05:04:40.538Z,15.88
2023-02-11T05:07:07.395Z,13.85
2023-02-11T05:09:34.284Z,16.10
2023-02-11T05:12:01.089Z,18.52
2023-02-11T05:14:27.903Z,16.13
2023-02-11T05:16:54.860Z,16.85
2023-02-11T05:19:21.779Z,17.00
2023-02-11T05:22:01.672Z,15.98
2023-02-11T05:24:29.457Z,15.23
2023-02-11T05:26:56.277Z,15.90
2023-02-11T05:29:23.263Z,14.73
2023-02-11T05:31:50.179Z,16.73
2023-02-11T05:34:16.981Z,14.35
2023-02-11T05:36:43.841Z,15.75
2023-02-11T05:39:10.720Z,15.90
2023-02-11T05:41:38.301Z,16.25
2023-02-11T05:44:05.186Z,16.52
2023-02-11T05:46:32.262Z,14.30
2023-02-11T05:48:59.260Z,12.65
2023-02-11T05:51:26.122Z,14.35
2023-02-11T05:53:53.563Z,16.85
2023-02-11T05:56:20.447Z,15.57
2023-02-11T05:58:47.299Z,13.85
2023-02-11T06:01:14.185Z,12.45
2023-02-11T06:03:41.122Z,16.27
2023-02-11T06:06:12.631Z,13.20
2023-02-11T06:08:40.175Z,14.77
2023-02-11T06:11:07.225Z,11.27
2023-02-11T06:13:34.160Z,9.45
2023-02-11T06:16:02.242Z,8.88
2023-02-11T06:18:29.637Z,11.73
2023-02-11T06:20:56.825Z,8.43
2023-02-11T06:23:23.782Z,10.75
2023-02-11T06:25:51.541Z,8.75
2023-02-11T06:28:19.186Z,8.27
2023-02-11T06:30:46.088Z,9.02
2023-02-11T06:33:12.937Z,9.30
2023-02-11T06:35:40.168Z,8.63
2023-02-11T06:38:07.320Z,10.50
2023-02-11T06:40:34.211Z,8.60
2023-02-11T06:43:01.072Z,8.90
2023-02-11T06:45:27.931Z,8.25
2023-02-11T06:47:54.899Z,6.50
2023-02-11T06:50:21.891Z,10.30
2023-02-11T06:52:48.724Z,8.80
2023-02-11T06:55:15.696Z,13.73
2023-02-11T06:57:42.592Z,12.30
2023-02-11T07:00:10.244Z,12.95
2023-02-11T07:02:37.220Z,14.95
2023-02-11T07:05:06.924Z,16.52
2023-02-11T07:07:34.443Z,15.50
2023-02-11T07:10:03.230Z,17.80
2023-02-11T07:12:30.830Z,16.10
2023-02-11T07:14:58.246Z,14.43
2023-02-11T07:17:25.174Z,15.25
2023-02-11T07:19:52.063Z,16.38
2023-02-11T07:22:19.008Z,18.55
2023-02-11T07:24:45.960Z,18.77
2023-02-11T07:27:12.916Z,18.00
2023-02-11T07:29:39.926Z,18.98
2023-02-11T07:32:06.882Z,18.92
2023-02-11T07:34:33.961Z,18.67
2023-02-11T07:37:00.880Z,16.65
2023-02-11T07:39:27.882Z,18.25
2023-02-11T07:41:55.005Z,15.63
2023-02-11T07:44:21.831Z,17.33
2023-02-11T07:46:49.390Z,17.20
2023-02-11T07:49:16.947Z,17.98
2023-02-11T07:51:44.181Z,17.73
2023-02-11T07:54:12.328Z,16.67
2023-02-11T07:56:39.257Z,18.60
2023-02-11T07:59:07.704Z,24.15
2023-02-11T08:01:34.661Z,18.17
2023-02-11T08:04:03.108Z,20.05
2023-02-11T08:06:32.667Z,17.90
2023-02-11T08:09:07.680Z,18.38
2023-02-11T08:11:34.791Z,16.63
2023-02-11T08:14:02.358Z,17.02
2023-02-11T08:16:34.470Z,16.17
2023-02-11T08:19:05.908Z,19.73
2023-02-11T08:21:32.837Z,18.77
2023-02-11T08:24:01.222Z,19.73
2023-02-11T08:26:30.009Z,16.33
2023-02-11T08:28:58.425Z,17.85
2023-02-11T08:31:28.589Z,17.65
2023-02-11T08:33:58.249Z,15.73
2023-02-11T08:36:32.376Z,19.65
2023-02-11T08:39:17.661Z,17.15
2023-02-11T08:41:48.932Z,17.50
2023-02-11T08:44:16.794Z,20.35
2023-02-11T08:46:43.661Z,17.15
2023-02-11T08:49:10.601Z,19.48
2023-02-11T08:51:37.528Z,17.58
2023-02-11T08:54:04.539Z,16.70
2023-02-11T08:56:33.189Z,16.85
2023-02-11T08:59:00.118Z,15.68
2023-02-11T09:01:31.435Z,14.75
2023-02-11T09:03:59.040Z,15.45
2023-02-11T09:06:27.286Z,14.57
2023-02-11T09:08:55.844Z,16.23
2023-02-11T09:11:28.909Z,17.20
2023-02-11T09:13:55.867Z,14.07
2023-02-11T09:16:28.557Z,14.25
2023-02-11T09:18:57.765Z,13.40
2023-02-11T09:21:25.165Z,14.20
2023-02-11T09:23:52.403Z,16.00
2023-02-11T09:26:26.514Z,14.50
2023-02-11T09:28:53.542Z,13.70
2023-02-11T09:31:23.009Z,15.43
2023-02-11T09:33:52.931Z,16.25
2023-02-11T09:36:22.987Z,14.98
2023-02-11T09:38:50.416Z,14.15
2023-02-11T09:41:33.322Z,14.63
2023-02-11T09:44:04.885Z,14.20
2023-02-11T09:46:41.419Z,12.75
2023-02-11T09:49:17.952Z,17.88
2023-02-11T09:51:50.106Z,17.70
2023-02-11T09:54:35.921Z,13.88
2023-02-11T09:57:02.929Z,15.48
2023-02-11T09:59:29.795Z,12.77
2023-02-11T10:02:11.756Z,12.23
2023-02-11T10:04:53.648Z,12.32
2023-02-11T10:07:48.602Z,11.98
2023-02-11T10:10:18.233Z,11.02
2023-02-11T10:13:40.830Z,12.63
2023-02-11T10:16:27.046Z,13.05
2023-02-11T10:19:18.860Z,11.40
2023-02-11T10:21:54.578Z,11.20
2023-02-11T10:24:22.315Z,11.63
2023-02-11T10:26:49.603Z,11.45
2023-02-11T10:29:33.703Z,12.45
2023-02-11T10:32:04.190Z,13.18
2023-02-11T10:34:32.935Z,14.05
2023-02-11T10:37:00.469Z,17.35
2023-02-11T10:39:28.249Z,15.38
2023-02-11T10:42:01.959Z,16.80
2023-02-11T10:44:59.880Z,16.50
2023-02-11T10:47:32.869Z,15.43
2023-02-11T10:50:03.697Z,16.85
2023-02-11T10:52:31.312Z,19.48
2023-02-11T10:55:16.513Z,18.30
2023-02-11T10:58:00.981Z,17.10
2023-02-11T11:00:40.162Z,23.42
2023-02-11T11:03:28.844Z,23.95
2023-02-11T11:05:59.830Z,23.30
2023-02-11T11:08:45.999Z,22.15
2023-02-11T11:11:15.445Z,24.90
2023-02-11T11:13:54.112Z,23.80
2023-02-11T11:16:25.158Z,22.63
2023-02-11T11:19:07.338Z,24.65
2023-02-11T11:21:43.014Z,22.08
2023-02-11T11:24:21.138Z,22.58
2023-02-11T11:26:57.336Z,20.50
2023-02-11T11:29:31.031Z,22.27
2023-02-11T11:32:05.589Z,21.98
2023-02-11T11:34:39.371Z,18.73
2023-02-11T11:37:32.220Z,21.73
2023-02-11T11:40:22.009Z,18.80
2023-02-11T11:43:05.743Z,21.55
2023-02-11T11:45:33.069Z,17.88
2023-02-11T11:48:14.711Z,20.70
2023-02-11T11:50:45.589Z,19.55
2023-02-11T11:53:24.055Z,17.27
2023-02-11T11:56:07.408Z,18.33
2023-02-11T11:58:35.247Z,15.50
2023-02-11T12:01:23.535Z,16.20
2023-02-11T12:04:09.155Z,15.57
2023-02-11T12:06:51.439Z,12.80
2023-02-11T12:09:55.648Z,13.45
2023-02-11T12:12:26.742Z,15.27
2023-02-11T12:15:35.272Z,13.35
2023-02-11T12:18:36.155Z,12.98
2023-02-11T12:21:29.573Z,11.95
2023-02-11T12:24:08.217Z,12.02
2023-02-11T12:26:49.674Z,12.07
2023-02-11T12:29:37.240Z,13.23
2023-02-11T12:32:09.924Z,11.80
2023-02-11T12:35:04.883Z,11.95
2023-02-11T12:37:47.562Z,11.95
2023-02-11T12:40:28.658Z,11.85
2023-02-11T12:43:18.496Z,11.63
2023-02-11T12:46:00.525Z,12.13
2023-02-11T12:48:35.824Z,11.48
2023-02-11T12:51:02.784Z,14.18
2023-02-11T12:54:07.543Z,11.90
2023-02-11T12:56:52.596Z,11.38
2023-02-11T12:59:51.033Z,11.75
2023-02-11T13:02:54.488Z,12.20
2023-02-11T13:05:45.412Z,11.57
2023-02-11T13:08:30.381Z,11.43
2023-02-11T13:11:16.166Z,13.57
2023-02-11T13:13:45.834Z,13.02
2023-02-11T13:16:37.132Z,14.13
2023-02-11T13:19:24.147Z,13.65
2023-02-11T13:22:02.894Z,14.52
2023-02-11T13:24:49.420Z,15.75
2023-02-11T13:27:48.096Z,14.30
2023-02-11T13:30:29.388Z,14.50
2023-02-11T13:32:56.531Z,13.38
2023-02-11T13:35:39.441Z,14.30
2023-02-11T13:38:28.039Z,15.48
2023-02-11T13:41:21.211Z,15.70
2023-02-11T13:44:01.495Z,13.48
2023-02-11T13:46:47.053Z,14.73
2023-02-11T13:49:36.243Z,15.25
2023-02-11T13:52:06.111Z,16.77
2023-02-11T13:54:37.538Z,12.20
2023-02-11T13:57:27.022Z,16.90
2023-02-11T14:00:02.553Z,14.48
2023-02-11T14:02:53.176Z,15.40
2023-02-11T14:05:50.261Z,21.98
2023-02-11T14:08:41.878Z,13.90
2023-02-11T14:11:28.901Z,10.77
2023-02-11T14:13:55.755Z,11.10
2023-02-11T14:16:37.047Z,11.55
2023-02-11T14:19:06.376Z,10.07
2023-02-11T14:21:40.378Z,10.75
2023-02-11T14:24:11.716Z,12.50
2023-02-11T14:26:51.188Z,11.77
2023-02-11T14:29:20.020Z,10.32
2023-02-11T14:31:58.992Z,10.23
2023-02-11T14:34:38.165Z,11.05
2023-02-11T14:37:29.392Z,9.60
2023-02-11T14:40:16.132Z,9.60
2023-02-11T14:42:43.113Z,10.95
2023-02-11T14:45:15.892Z,8.68
2023-02-11T14:47:52.694Z,9.15
2023-02-11T14:50:32.629Z,8.07
2023-02-11T14:53:02.123Z,7.72
2023-02-11T14:55:43.231Z,8.02
2023-02-11T14:58:17.807Z,8.68
2023-02-11T15:01:06.701Z,8.30
2023-02-11T15:03:42.335Z,6.90
2023-02-11T15:06:36.687Z,7.80
2023-02-11T15:09:25.558Z,8.20
2023-02-11T15:11:53.285Z,7.60
2023-02-11T15:14:26.723Z,7.78
2023-02-11T15:16:57.174Z,6.95
2023-02-11T15:19:34.373Z,7.75
2023-02-11T15:22:06.888Z,8.20
2023-02-11T15:24:35.533Z,7.00
2023-02-11T15:27:14.686Z,6.82
2023-02-11T15:29:50.691Z,5.78
2023-02-11T15:32:24.384Z,9.25
2023-02-11T15:34:53.398Z,6.15
2023-02-11T15:37:24.823Z,6.10
2023-02-11T15:39:52.596Z,7.45
2023-02-11T15:42:40.784Z,7.65
2023-02-11T15:45:13.809Z,8.38
2023-02-11T15:47:48.699Z,7.97
2023-02-11T15:50:22.165Z,9.25
2023-02-11T15:52:49.865Z,7.88
2023-02-11T15:55:17.964Z,9.93
2023-02-11T15:58:11.640Z,9.10
2023-02-11T16:00:47.277Z,8.70
2023-02-11T16:03:27.839Z,8.52
2023-02-11T16:05:56.573Z,8.63
2023-02-11T16:08:30.021Z,8.60
2023-02-11T16:10:58.776Z,8.05
2023-02-11T16:13:28.359Z,9.07
2023-02-11T16:16:04.051Z,11.38
2023-02-11T16:18:39.664Z,11.75
2023-02-11T16:21:14.934Z,11.75
2023-02-11T16:23:44.782Z,12.10
2023-02-11T16:26:41.023Z,13.95
2023-02-11T16:29:16.932Z,13.20
2023-02-11T16:31:47.393Z,12.18
2023-02-11T16:34:25.461Z,10.57
2023-02-11T16:36:53.039Z,12.65
2023-02-11T16:39:23.726Z,11.77
2023-02-11T16:41:52.285Z,11.65
2023-02-11T16:44:19.575Z,13.35
2023-02-11T16:46:46.632Z,12.75
2023-02-11T16:49:19.855Z,14.80
2023-02-11T16:51:49.637Z,11.68
2023-02-11T16:54:17.943Z,15.70
2023-02-11T16:56:45.059Z,13.48
2023-02-11T16:59:12.010Z,11.90
2023-02-11T17:01:40.813Z,11.40
2023-02-11T17:04:10.777Z,11.32
2023-02-11T17:06:37.671Z,11.98
2023-02-11T17:09:06.763Z,12.20
2023-02-11T17:11:33.641Z,12.93
2023-02-11T17:14:00.473Z,11.27
2023-02-11T17:16:29.946Z,10.60
2023-02-11T17:18:56.927Z,12.82
2023-02-11T17:21:27.633Z,12.82
2023-02-11T17:23:56.379Z,14.20
2023-02-11T17:26:23.217Z,13.52
2023-02-11T17:28:50.180Z,12.60
2023-02-11T17:31:17.157Z,13.73
2023-02-11T17:33:44.265Z,18.52
2023-02-11T17:36:11.289Z,19.50
2023-02-11T17:38:38.195Z,18.77
2023-02-11T17:41:05.506Z,19.48
2023-02-11T17:43:32.451Z,20.08
2023-02-11T17:45:59.403Z,17.40
2023-02-11T17:48:26.408Z,15.25
2023-02-11T17:50:53.301Z,15.10
2023-02-11T17:53:20.117Z,15.45
2023-02-11T17:55:47.007Z,14.68
2023-02-11T17:58:13.878Z,12.82
2023-02-11T18:00:40.857Z,12.82
2023-02-11T18:03:07.791Z,11.70
2023-02-11T18:05:37.239Z,13.90
2023-02-11T18:08:05.660Z,17.17
2023-02-11T18:10:33.637Z,14.15
2023-02-11T18:13:01.904Z,15.15
2023-02-11T18:15:28.826Z,13.98
2023-02-11T18:17:56.182Z,14.10
2023-02-11T18:20:23.463Z,17.00
2023-02-11T18:22:50.362Z,18.85
2023-02-11T18:25:18.791Z,19.30
2023-02-11T18:27:46.431Z,22.48
2023-02-11T18:30:18.296Z,20.95
2023-02-11T18:32:45.523Z,19.83
2023-02-11T18:35:15.203Z,22.67
2023-02-11T18:37:43.052Z,21.75
2023-02-11T18:40:11.174Z,22.50
2023-02-11T18:42:38.158Z,22.25
2023-02-11T18:45:09.560Z,23.95
2023-02-11T18:47:37.808Z,20.73
2023-02-11T18:50:06.133Z,20.55
2023-02-11T18:52:34.477Z,19.15
2023-02-11T18:55:03.303Z,19.23
2023-02-11T18:57:30.114Z,19.73
2023-02-11T18:59:56.973Z,17.15
2023-02-11T19:02:24.915Z,17.02
2023-02-11T19:04:51.949Z,16.92
2023-02-11T19:07:18.846Z,16.73
2023-02-11T19:09:45.752Z,21.10
2023-02-11T19:12:12.594Z,20.10
2023-02-11T19:14:39.520Z,19.77
2023-02-11T19:17:07.759Z,22.23
2023-02-11T19:19:36.444Z,20.50
2023-02-11T19:22:08.520Z,18.48
2023-02-11T19:24:37.309Z,19.20
2023-02-11T19:27:05.351Z,19.48
2023-02-11T19:29:35.137Z,19.60
2023-02-11T19:32:06.294Z,18.95
2023-02-11T19:34:42.608Z,18.05
2023-02-11T19:37:12.688Z,19.45
2023-02-11T19:39:40.536Z,17.92
2023-02-11T19:42:07.571Z,21.17
2023-02-11T19:44:34.462Z,17.55
2023-02-11T19:47:01.810Z,20.30
2023-02-11T19:49:28.900Z,18.83
2023-02-11T19:52:00.255Z,17.02
2023-02-11T19:54:30.007Z,17.08
2023-02-11T19:56:57.664Z,18.27
2023-02-11T19:59:24.855Z,17.67
2023-02-11T20:01:53.184Z,16.60
2023-02-11T20:04:20.200Z,17.20
2023-02-11T20:06:50.486Z,19.77
2023-02-11T20:09:17.427Z,17.60
2023-02-11T20:11:44.780Z,20.08
2023-02-11T20:14:14.861Z,19.40
2023-02-11T20:16:49.018Z,18.77
2023-02-11T20:19:21.926Z,18.38
2023-02-11T20:21:51.361Z,19.30
2023-02-11T20:24:19.169Z,21.08
2023-02-11T20:26:48.528Z,18.75
2023-02-11T20:29:18.812Z,19.42
2023-02-11T20:31:46.164Z,18.60
2023-02-11T20:34:13.225Z,19.60
2023-02-11T20:36:40.940Z,17.52
2023-02-11T20:39:08.481Z,19.45
2023-02-11T20:41:39.213Z,20.33
2023-02-11T20:44:08.413Z,20.15
2023-02-11T20:46:38.548Z,21.67
2023-02-11T20:49:05.949Z,21.92
2023-02-11T20:51:34.246Z,20.25
2023-02-11T20:54:01.585Z,20.75
2023-02-11T20:56:31.479Z,20.50
2023-02-11T20:59:00.643Z,20.27
2023-02-11T21:01:30.902Z,22.08
2023-02-11T21:04:03.607Z,17.38
2023-02-11T21:06:36.684Z,19.98
2023-02-11T21:09:05.904Z,20.57
2023-02-11T21:11:33.214Z,20.98
2023-02-11T21:14:00.732Z,19.33
2023-02-11T21:16:27.929Z,19.58
2023-02-11T21:18:55.472Z,19.35
2023-02-11T21:21:23.196Z,18.17
2023-02-11T21:23:50.543Z,17.63
2023-02-11T21:26:17.368Z,18.98
2023-02-11T21:28:44.414Z,18.85
2023-02-11T21:31:27.007Z,20.60
2023-02-11T21:33:59.429Z,20.85
2023-02-11T21:36:27.699Z,19.50
2023-02-11T21:38:54.803Z,19.45
2023-02-11T21:41:22.628Z,17.50
2023-02-11T21:43:50.657Z,19.23
2023-02-11T21:46:18.826Z,19.02
2023-02-11T21:48:45.891Z,21.00
2023-02-11T21:51:18.845Z,18.15
2023-02-11T21:53:46.240Z,20.52
2023-02-11T21:56:16.110Z,17.77
2023-02-11T21:58:43.766Z,18.45
2023-02-11T22:01:20.301Z,18.30
2023-02-11T22:03:47.455Z,22.90
2023-02-11T22:06:26.154Z,19.67
2023-02-11T22:08:54.750Z,21.42
2023-02-11T22:11:22.302Z,18.10
2023-02-11T22:13:56.556Z,20.05
2023-02-11T22:16:24.548Z,18.98
2023-02-11T22:18:51.932Z,19.30
2023-02-11T22:21:21.738Z,22.05
2023-02-11T22:23:48.900Z,20.48
2023-02-11T22:26:21.025Z,19.13
2023-02-11T22:28:48.451Z,16.75
2023-02-11T22:31:24.408Z,19.88
2023-02-11T22:33:52.025Z,19.13
2023-02-11T22:36:22.196Z,19.63
2023-02-11T22:38:49.864Z,23.75
2023-02-11T22:41:17.557Z,20.40
2023-02-11T22:43:44.855Z,22.58
2023-02-11T22:46:17.388Z,19.92
2023-02-11T22:48:44.539Z,20.73
2023-02-11T22:51:17.395Z,19.58
2023-02-11T22:53:44.627Z,18.85
2023-02-11T22:56:15.652Z,19.60
2023-02-11T22:58:43.139Z,19.83
2023-02-11T23:01:10.443Z,19.50
2023-02-11T23:03:37.441Z,20.48
2023-02-11T23:06:04.977Z,20.92
2023-02-11T23:08:32.816Z,25.30
2023-02-11T23:11:14.579Z,22.38
2023-02-11T23:13:43.097Z,18.88
2023-02-11T23:16:13.416Z,23.35
2023-02-11T23:18:42.195Z,21.65
2023-02-11T23:21:13.138Z,20.50
2023-02-11T23:23:40.107Z,22.63
2023-02-11T23:26:10.706Z,23.52
2023-02-11T23:28:37.945Z,19.08
2023-02-11T23:31:18.468Z,19.92
2023-02-11T23:33:46.419Z,21.63
2023-02-11T23:36:13.891Z,21.50
2023-02-11T23:38:40.861Z,20.13
2023-02-11T23:41:07.933Z,19.90
2023-02-11T23:43:34.824Z,23.10
2023-02-11T23:46:02.044Z,23.00
2023-02-11T23:48:28.940Z,18.23
2023-02-11T23:50:55.908Z,20.08
2023-02-11T23:53:22.835Z,19.52
2023-02-11T23:55:49.672Z,22.63
2023-02-11T23:58:16.632Z,20.30
